createdAt,value
2018-12-27T00:00:08.468Z,1021.39
2018-12-27T00:01:08.499Z,1021.31
2018-12-27T00:02:08.531Z,1021.31
2018-12-27T00:03:08.559Z,1021.32
2018-12-27T00:04:08.594Z,1021.30
2018-12-27T00:05:08.622Z,1021.26
2018-12-27T00:06:08.651Z,1021.28
2018-12-27T00:07:08.682Z,1021.26
2018-12-27T00:08:08.711Z,1021.28
2018-12-27T00:09:08.744Z,1021.21
2018-12-27T00:10:08.773Z,1021.19
2018-12-27T00:11:08.804Z,1021.16
2018-12-27T00:12:08.834Z,1021.12
2018-12-27T00:13:08.866Z,1021.08
2018-12-27T00:14:08.896Z,1021.08
2018-12-27T00:15:08.926Z,1021.09
2018-12-27T00:16:08.956Z,1021.07
2018-12-27T00:17:08.988Z,1021.14
2018-12-27T00:18:09.018Z,1021.08
2018-12-27T00:19:09.048Z,1021.02
2018-12-27T00:20:09.081Z,1021.00
2018-12-27T00:21:09.108Z,1020.92
2018-12-27T00:22:09.138Z,1021.00
2018-12-27T00:23:09.169Z,1021.02
2018-12-27T00:24:09.199Z,1021.02
2018-12-27T00:25:09.230Z,1020.93
2018-12-27T00:26:09.262Z,1020.97
2018-12-27T00:27:09.290Z,1020.94
2018-12-27T00:28:09.321Z,1020.96
2018-12-27T00:29:09.352Z,1021.04
2018-12-27T00:30:09.383Z,1021.03
2018-12-27T00:31:09.412Z,1021.04
2018-12-27T00:32:09.444Z,1021.04
2018-12-27T00:33:09.471Z,1021.03
2018-12-27T00:34:09.502Z,1021.02
2018-12-27T00:35:09.532Z,1020.97
2018-12-27T00:36:09.563Z,1020.98
2018-12-27T00:37:09.595Z,1020.97
2018-12-27T00:38:09.624Z,1021.01
2018-12-27T00:39:09.653Z,1021.03
2018-12-27T00:40:09.687Z,1021.00
2018-12-27T00:41:09.716Z,1021.01
2018-12-27T00:42:09.752Z,1021.01
2018-12-27T00:43:09.775Z,1020.99
2018-12-27T00:44:09.806Z,1020.98
2018-12-27T00:45:09.836Z,1020.97
2018-12-27T00:46:09.867Z,1020.98
2018-12-27T00:47:09.896Z,1020.97
2018-12-27T00:48:09.927Z,1020.99
2018-12-27T00:49:09.957Z,1021.04
2018-12-27T00:50:09.991Z,1020.99
2018-12-27T00:51:10.017Z,1021.04
2018-12-27T00:52:10.049Z,1020.98
2018-12-27T00:53:10.080Z,1020.93
2018-12-27T00:54:10.112Z,1020.97
2018-12-27T00:55:10.139Z,1020.98
2018-12-27T00:56:10.170Z,1020.94
2018-12-27T00:57:10.201Z,1020.98
2018-12-27T00:58:10.232Z,1020.98
2018-12-27T00:59:10.261Z,1020.96
2018-12-27T01:00:10.290Z,1020.96
2018-12-27T01:01:10.321Z,1020.93
2018-12-27T01:02:10.351Z,1020.98
2018-12-27T01:03:11.282Z,1020.95
2018-12-27T01:04:10.413Z,1020.93
2018-12-27T01:05:10.444Z,1020.95
2018-12-27T01:06:10.476Z,1021.06
2018-12-27T01:07:10.502Z,1020.98
2018-12-27T01:08:10.532Z,1020.97
2018-12-27T01:09:10.563Z,1020.96
2018-12-27T01:10:10.596Z,1020.96
2018-12-27T01:11:10.626Z,1020.98
2018-12-27T01:12:10.654Z,1020.95
2018-12-27T01:13:10.685Z,1020.95
2018-12-27T01:14:10.716Z,1020.98
2018-12-27T01:15:10.746Z,1020.95
2018-12-27T01:16:10.776Z,1021.00
2018-12-27T01:17:10.807Z,1020.94
2018-12-27T01:18:10.840Z,1020.98
2018-12-27T01:19:10.866Z,1020.94
2018-12-27T01:20:10.905Z,1020.93
2018-12-27T01:21:10.928Z,1020.91
2018-12-27T01:22:10.962Z,1020.93
2018-12-27T01:23:10.990Z,1020.95
2018-12-27T01:24:11.018Z,1020.90
2018-12-27T01:25:11.048Z,1020.93
2018-12-27T01:26:11.080Z,1020.89
2018-12-27T01:27:11.109Z,1020.92
2018-12-27T01:28:11.141Z,1020.87
2018-12-27T01:29:11.169Z,1020.92
2018-12-27T01:30:11.292Z,1020.84
2018-12-27T01:31:11.230Z,1020.87
2018-12-27T01:32:11.260Z,1020.87
2018-12-27T01:33:18.577Z,1020.85
2018-12-27T01:34:11.322Z,1020.84
2018-12-27T01:35:11.352Z,1020.87
2018-12-27T01:36:11.383Z,1020.80
2018-12-27T01:37:11.414Z,1020.86
2018-12-27T01:38:11.444Z,1020.83
2018-12-27T01:39:11.473Z,1020.84
2018-12-27T01:40:11.503Z,1020.82
2018-12-27T01:41:11.534Z,1020.78
2018-12-27T01:42:11.565Z,1020.78
2018-12-27T01:43:11.593Z,1020.81
2018-12-27T01:44:11.624Z,1020.84
2018-12-27T01:45:11.656Z,1020.83
2018-12-27T01:46:11.685Z,1020.85
2018-12-27T01:47:11.714Z,1020.82
2018-12-27T01:48:11.747Z,1020.89
2018-12-27T01:49:11.776Z,1020.85
2018-12-27T01:50:12.250Z,1020.84
2018-12-27T01:51:11.837Z,1020.84
2018-12-27T01:52:11.867Z,1020.86
2018-12-27T01:53:11.898Z,1020.86
2018-12-27T01:54:11.927Z,1020.90
2018-12-27T01:55:11.959Z,1020.87
2018-12-27T01:56:11.988Z,1020.89
2018-12-27T01:57:12.019Z,1020.84
2018-12-27T01:58:12.051Z,1020.88
2018-12-27T01:59:12.078Z,1020.85
2018-12-27T02:00:12.171Z,1020.92
2018-12-27T02:01:12.140Z,1020.85
2018-12-27T02:02:12.171Z,1020.91
2018-12-27T02:03:12.200Z,1020.94
2018-12-27T02:04:12.231Z,1020.96
2018-12-27T02:05:12.262Z,1020.90
2018-12-27T02:06:12.293Z,1020.92
2018-12-27T02:07:12.321Z,1020.92
2018-12-27T02:08:12.352Z,1020.87
2018-12-27T02:09:12.383Z,1020.88
2018-12-27T02:10:12.415Z,1020.90
2018-12-27T02:11:12.444Z,1020.90
2018-12-27T02:12:12.475Z,1020.95
2018-12-27T02:13:12.505Z,1020.91
2018-12-27T02:14:12.535Z,1020.96
2018-12-27T02:15:12.564Z,1020.90
2018-12-27T02:16:12.594Z,1020.92
2018-12-27T02:17:12.625Z,1020.92
2018-12-27T02:18:12.656Z,1020.89
2018-12-27T02:19:12.688Z,1020.93
2018-12-27T02:20:12.715Z,1020.89
2018-12-27T02:21:12.746Z,1020.88
2018-12-27T02:22:12.778Z,1020.89
2018-12-27T02:23:12.807Z,1020.90
2018-12-27T02:24:12.837Z,1020.90
2018-12-27T02:25:12.870Z,1020.87
2018-12-27T02:26:12.898Z,1020.87
2018-12-27T02:27:12.930Z,1020.88
2018-12-27T02:28:12.957Z,1020.88
2018-12-27T02:29:12.991Z,1020.87
2018-12-27T02:30:13.020Z,1020.87
2018-12-27T02:31:13.049Z,1020.87
2018-12-27T02:32:13.080Z,1020.78
2018-12-27T02:33:13.111Z,1020.80
2018-12-27T02:34:13.142Z,1020.81
2018-12-27T02:35:13.171Z,1020.86
2018-12-27T02:36:13.282Z,1020.81
2018-12-27T02:37:13.241Z,1020.82
2018-12-27T02:38:13.263Z,1020.91
2018-12-27T02:39:13.291Z,1020.85
2018-12-27T02:40:13.322Z,1020.81
2018-12-27T02:41:13.354Z,1020.82
2018-12-27T02:42:13.387Z,1020.87
2018-12-27T02:43:13.414Z,1020.74
2018-12-27T02:44:13.445Z,1020.73
2018-12-27T02:45:13.475Z,1020.72
2018-12-27T02:46:13.506Z,1020.75
2018-12-27T02:47:13.535Z,1020.69
2018-12-27T02:48:13.566Z,1020.68
2018-12-27T02:49:13.596Z,1020.66
2018-12-27T02:50:13.627Z,1020.64
2018-12-27T02:51:13.660Z,1020.62
2018-12-27T02:52:13.687Z,1020.60
2018-12-27T02:53:13.718Z,1020.54
2018-12-27T02:54:13.747Z,1020.54
2018-12-27T02:55:13.777Z,1020.51
2018-12-27T02:56:13.807Z,1020.50
2018-12-27T02:57:13.838Z,1020.48
2018-12-27T02:58:13.868Z,1020.51
2018-12-27T02:59:13.897Z,1020.56
2018-12-27T03:00:13.927Z,1020.49
2018-12-27T03:01:13.966Z,1020.57
2018-12-27T03:02:13.997Z,1020.49
2018-12-27T03:03:14.021Z,1020.52
2018-12-27T03:04:14.051Z,1020.46
2018-12-27T03:05:14.080Z,1020.47
2018-12-27T03:06:14.113Z,1020.44
2018-12-27T03:07:14.140Z,1020.44
2018-12-27T03:08:14.173Z,1020.43
2018-12-27T03:09:14.201Z,1020.44
2018-12-27T03:10:14.244Z,1020.42
2018-12-27T03:11:14.259Z,1020.51
2018-12-27T03:12:14.293Z,1020.51
2018-12-27T03:13:14.321Z,1020.52
2018-12-27T03:14:14.354Z,1020.49
2018-12-27T03:15:14.382Z,1020.53
2018-12-27T03:16:14.413Z,1020.48
2018-12-27T03:17:14.443Z,1020.53
2018-12-27T03:18:14.473Z,1020.52
2018-12-27T03:19:14.503Z,1020.49
2018-12-27T03:20:14.545Z,1020.47
2018-12-27T03:21:14.565Z,1020.47
2018-12-27T03:22:14.593Z,1020.47
2018-12-27T03:23:14.624Z,1020.45
2018-12-27T03:24:14.653Z,1020.47
2018-12-27T03:25:14.686Z,1020.49
2018-12-27T03:26:14.714Z,1020.47
2018-12-27T03:27:14.747Z,1020.50
2018-12-27T03:28:14.775Z,1020.51
2018-12-27T03:29:14.804Z,1020.44
2018-12-27T03:30:14.841Z,1020.49
2018-12-27T03:31:14.945Z,1020.49
2018-12-27T03:32:14.897Z,1020.45
2018-12-27T03:33:14.928Z,1020.48
2018-12-27T03:34:14.957Z,1020.51
2018-12-27T03:35:14.992Z,1020.42
2018-12-27T03:36:15.014Z,1020.47
2018-12-27T03:37:15.048Z,1020.51
2018-12-27T03:38:15.074Z,1020.48
2018-12-27T03:39:15.105Z,1020.47
2018-12-27T03:40:15.138Z,1020.47
2018-12-27T03:41:15.180Z,1020.43
2018-12-27T03:42:15.196Z,1020.46
2018-12-27T03:43:15.227Z,1020.44
2018-12-27T03:44:15.257Z,1020.43
2018-12-27T03:45:15.287Z,1020.40
2018-12-27T03:46:15.321Z,1020.43
2018-12-27T03:47:15.346Z,1020.37
2018-12-27T03:48:15.377Z,1020.41
2018-12-27T03:49:15.408Z,1020.40
2018-12-27T03:50:15.439Z,1020.45
2018-12-27T03:51:15.470Z,1020.41
2018-12-27T03:52:15.499Z,1020.48
2018-12-27T03:53:15.531Z,1020.45
2018-12-27T03:54:15.559Z,1020.45
2018-12-27T03:55:15.590Z,1020.43
2018-12-27T03:56:15.626Z,1020.40
2018-12-27T03:57:15.649Z,1020.42
2018-12-27T03:58:15.680Z,1020.40
2018-12-27T03:59:15.711Z,1020.34
2018-12-27T04:00:15.739Z,1020.35
2018-12-27T04:01:15.774Z,1020.44
2018-12-27T04:02:15.802Z,1020.34
2018-12-27T04:03:15.832Z,1020.34
2018-12-27T04:04:15.862Z,1020.38
2018-12-27T04:05:15.893Z,1020.33
2018-12-27T04:06:15.921Z,1020.36
2018-12-27T04:07:15.951Z,1020.37
2018-12-27T04:08:15.981Z,1020.32
2018-12-27T04:09:16.012Z,1020.38
2018-12-27T04:10:16.044Z,1020.38
2018-12-27T04:11:16.073Z,1020.36
2018-12-27T04:12:16.102Z,1020.32
2018-12-27T04:13:16.132Z,1020.34
2018-12-27T04:14:16.164Z,1020.30
2018-12-27T04:15:16.193Z,1020.30
2018-12-27T04:16:16.224Z,1020.28
2018-12-27T04:17:16.255Z,1020.32
2018-12-27T04:18:16.289Z,1020.33
2018-12-27T04:19:16.314Z,1020.28
2018-12-27T04:20:16.344Z,1020.31
2018-12-27T04:21:16.375Z,1020.34
2018-12-27T04:22:16.405Z,1020.25
2018-12-27T04:23:16.434Z,1020.28
2018-12-27T04:24:16.464Z,1020.28
2018-12-27T04:25:16.495Z,1020.26
2018-12-27T04:26:16.526Z,1020.22
2018-12-27T04:27:16.555Z,1020.17
2018-12-27T04:28:16.586Z,1020.24
2018-12-27T04:29:16.620Z,1020.18
2018-12-27T04:30:16.645Z,1020.19
2018-12-27T04:31:16.675Z,1020.15
2018-12-27T04:32:16.707Z,1020.12
2018-12-27T04:33:16.738Z,1020.09
2018-12-27T04:34:16.768Z,1020.10
2018-12-27T04:35:16.799Z,1020.10
2018-12-27T04:36:16.825Z,1020.09
2018-12-27T04:37:16.856Z,1020.10
2018-12-27T04:38:16.889Z,1020.08
2018-12-27T04:39:16.915Z,1020.01
2018-12-27T04:40:16.947Z,1020.00
2018-12-27T04:41:16.977Z,1019.99
2018-12-27T04:42:17.008Z,1019.96
2018-12-27T04:43:17.037Z,1019.95
2018-12-27T04:44:17.068Z,1019.93
2018-12-27T04:45:17.100Z,1019.95
2018-12-27T04:46:17.127Z,1019.85
2018-12-27T04:47:17.156Z,1019.91
2018-12-27T04:48:17.187Z,1019.88
2018-12-27T04:49:17.218Z,1019.88
2018-12-27T04:50:17.248Z,1019.88
2018-12-27T04:51:17.281Z,1019.92
2018-12-27T04:52:17.308Z,1019.89
2018-12-27T04:53:17.337Z,1019.88
2018-12-27T04:54:17.367Z,1019.89
2018-12-27T04:55:17.397Z,1019.89
2018-12-27T04:56:17.427Z,1019.88
2018-12-27T04:57:17.458Z,1019.83
2018-12-27T04:58:17.491Z,1019.87
2018-12-27T04:59:17.518Z,1019.87
2018-12-27T05:00:17.558Z,1019.90
2018-12-27T05:01:17.577Z,1019.89
2018-12-27T05:02:17.608Z,1019.84
2018-12-27T05:03:17.639Z,1019.87
2018-12-27T05:04:18.357Z,1019.92
2018-12-27T05:05:17.697Z,1019.88
2018-12-27T05:06:17.728Z,1019.88
2018-12-27T05:07:17.760Z,1019.89
2018-12-27T05:08:17.787Z,1019.87
2018-12-27T05:09:17.818Z,1019.85
2018-12-27T05:10:17.849Z,1019.89
2018-12-27T05:11:17.877Z,1019.88
2018-12-27T05:12:17.908Z,1019.88
2018-12-27T05:13:17.938Z,1019.84
2018-12-27T05:14:17.969Z,1019.86
2018-12-27T05:15:17.997Z,1019.77
2018-12-27T05:16:18.028Z,1019.89
2018-12-27T05:17:18.059Z,1019.90
2018-12-27T05:18:18.088Z,1019.88
2018-12-27T05:19:18.118Z,1019.90
2018-12-27T05:20:18.146Z,1019.90
2018-12-27T05:21:18.181Z,1019.98
2018-12-27T05:22:18.207Z,1019.97
2018-12-27T05:23:18.236Z,1019.94
2018-12-27T05:24:18.268Z,1019.97
2018-12-27T05:25:18.298Z,1020.01
2018-12-27T05:26:18.327Z,1019.97
2018-12-27T05:27:18.356Z,1019.99
2018-12-27T05:28:18.392Z,1020.04
2018-12-27T05:29:18.417Z,1019.95
2018-12-27T05:30:18.447Z,1019.98
2018-12-27T05:31:18.478Z,1019.97
2018-12-27T05:32:18.510Z,1019.98
2018-12-27T05:33:18.538Z,1019.95
2018-12-27T05:34:26.014Z,1020.00
2018-12-27T05:35:18.595Z,1019.94
2018-12-27T05:36:18.626Z,1019.94
2018-12-27T05:37:18.656Z,1020.00
2018-12-27T05:38:18.687Z,1019.99
2018-12-27T05:39:18.715Z,1019.93
2018-12-27T05:40:18.745Z,1019.96
2018-12-27T05:41:18.778Z,1020.00
2018-12-27T05:42:18.805Z,1020.02
2018-12-27T05:43:18.836Z,1019.98
2018-12-27T05:44:18.866Z,1019.97
2018-12-27T05:45:18.895Z,1019.96
2018-12-27T05:46:18.925Z,1019.90
2018-12-27T05:47:18.955Z,1019.93
2018-12-27T05:48:18.988Z,1019.95
2018-12-27T05:49:19.017Z,1019.95
2018-12-27T05:50:19.046Z,1019.95
2018-12-27T05:51:19.075Z,1020.04
2018-12-27T05:52:19.105Z,1020.01
2018-12-27T05:53:19.136Z,1020.03
2018-12-27T05:54:19.167Z,1020.05
2018-12-27T05:55:19.197Z,1020.10
2018-12-27T05:56:19.225Z,1020.09
2018-12-27T05:57:19.255Z,1020.05
2018-12-27T05:58:19.286Z,1020.11
2018-12-27T05:59:19.390Z,1020.14
2018-12-27T06:00:19.347Z,1020.21
2018-12-27T06:01:19.376Z,1020.07
2018-12-27T06:02:19.407Z,1020.14
2018-12-27T06:03:19.436Z,1020.11
2018-12-27T06:04:19.467Z,1020.11
2018-12-27T06:05:19.562Z,1020.11
2018-12-27T06:06:19.526Z,1020.09
2018-12-27T06:07:19.555Z,1020.10
2018-12-27T06:08:19.586Z,1020.10
2018-12-27T06:09:19.615Z,1020.10
2018-12-27T06:10:19.646Z,1020.08
2018-12-27T06:11:19.674Z,1020.13
2018-12-27T06:12:19.709Z,1020.12
2018-12-27T06:13:19.738Z,1020.13
2018-12-27T06:14:19.766Z,1020.15
2018-12-27T06:15:19.796Z,1020.12
2018-12-27T06:16:19.824Z,1020.11
2018-12-27T06:17:19.856Z,1020.08
2018-12-27T06:18:19.889Z,1020.08
2018-12-27T06:19:19.914Z,1020.13
2018-12-27T06:20:19.944Z,1020.12
2018-12-27T06:21:19.975Z,1020.09
2018-12-27T06:22:20.004Z,1020.10
2018-12-27T06:23:20.035Z,1020.09
2018-12-27T06:24:20.066Z,1020.09
2018-12-27T06:25:20.100Z,1020.10
2018-12-27T06:26:20.126Z,1020.07
2018-12-27T06:27:20.155Z,1020.09
2018-12-27T06:28:20.188Z,1020.09
2018-12-27T06:29:20.213Z,1020.03
2018-12-27T06:30:20.244Z,1020.06
2018-12-27T06:31:20.272Z,1020.06
2018-12-27T06:32:20.303Z,1020.06
2018-12-27T06:33:20.336Z,1020.05
2018-12-27T06:34:20.365Z,1020.03
2018-12-27T06:35:20.397Z,1020.05
2018-12-27T06:36:20.423Z,1020.06
2018-12-27T06:37:20.453Z,1019.95
2018-12-27T06:38:20.484Z,1019.98
2018-12-27T06:39:20.512Z,1019.97
2018-12-27T06:40:20.544Z,1020.01
2018-12-27T06:41:20.572Z,1019.98
2018-12-27T06:42:20.604Z,1019.99
2018-12-27T06:43:20.632Z,1019.98
2018-12-27T06:44:20.661Z,1019.96
2018-12-27T06:45:20.691Z,1019.96
2018-12-27T06:46:20.722Z,1019.93
2018-12-27T06:47:20.753Z,1019.92
2018-12-27T06:48:20.785Z,1019.91
2018-12-27T06:49:20.810Z,1019.95
2018-12-27T06:50:20.841Z,1019.97
2018-12-27T06:51:20.869Z,1019.95
2018-12-27T06:52:20.906Z,1019.92
2018-12-27T06:53:20.932Z,1019.93
2018-12-27T06:54:20.962Z,1019.95
2018-12-27T06:55:20.989Z,1019.91
2018-12-27T06:56:21.018Z,1019.88
2018-12-27T06:57:21.049Z,1019.92
2018-12-27T06:58:21.078Z,1019.92
2018-12-27T06:59:21.111Z,1019.86
2018-12-27T07:00:21.145Z,1019.90
2018-12-27T07:01:21.172Z,1019.91
2018-12-27T07:02:21.198Z,1019.91
2018-12-27T07:03:21.226Z,1019.85
2018-12-27T07:04:21.255Z,1019.84
2018-12-27T07:05:21.286Z,1019.80
2018-12-27T07:06:21.317Z,1019.75
2018-12-27T07:07:21.348Z,1019.70
2018-12-27T07:08:21.377Z,1019.69
2018-12-27T07:09:21.404Z,1019.62
2018-12-27T07:10:21.434Z,1019.66
2018-12-27T07:11:21.463Z,1019.66
2018-12-27T07:12:21.509Z,1019.75
2018-12-27T07:13:21.522Z,1019.73
2018-12-27T07:14:21.551Z,1019.74
2018-12-27T07:15:21.581Z,1019.79
2018-12-27T07:16:21.610Z,1019.77
2018-12-27T07:17:21.643Z,1019.71
2018-12-27T07:18:21.670Z,1019.72
2018-12-27T07:19:21.698Z,1019.71
2018-12-27T07:20:21.728Z,1019.71
2018-12-27T07:21:21.758Z,1019.68
2018-12-27T07:22:21.788Z,1019.69
2018-12-27T07:23:21.816Z,1019.72
2018-12-27T07:24:21.847Z,1019.75
2018-12-27T07:25:21.878Z,1019.79
2018-12-27T07:26:21.907Z,1019.78
2018-12-27T07:27:21.934Z,1019.73
2018-12-27T07:28:22.008Z,1019.74
2018-12-27T07:29:21.994Z,1019.70
2018-12-27T07:30:22.023Z,1019.74
2018-12-27T07:31:22.052Z,1019.70
2018-12-27T07:32:22.081Z,1019.75
2018-12-27T07:33:22.112Z,1019.75
2018-12-27T07:34:22.141Z,1019.83
2018-12-27T07:35:22.169Z,1019.78
2018-12-27T07:36:22.200Z,1019.78
2018-12-27T07:37:22.231Z,1019.81
2018-12-27T07:38:22.259Z,1019.68
2018-12-27T07:39:22.287Z,1019.74
2018-12-27T07:40:22.318Z,1019.81
2018-12-27T07:41:22.347Z,1019.70
2018-12-27T07:42:22.377Z,1019.74
2018-12-27T07:43:22.404Z,1019.75
2018-12-27T07:44:22.436Z,1019.75
2018-12-27T07:45:22.464Z,1019.67
2018-12-27T07:46:22.492Z,1019.75
2018-12-27T07:47:22.522Z,1019.81
2018-12-27T07:48:22.551Z,1019.94
2018-12-27T07:49:22.581Z,1020.03
2018-12-27T07:50:22.611Z,1019.97
2018-12-27T07:51:22.642Z,1019.90
2018-12-27T07:52:22.668Z,1019.93
2018-12-27T07:53:22.697Z,1020.02
2018-12-27T07:54:22.727Z,1020.02
2018-12-27T07:55:22.755Z,1020.00
2018-12-27T07:56:22.787Z,1019.98
2018-12-27T07:57:22.814Z,1019.99
2018-12-27T07:58:22.845Z,1020.01
2018-12-27T07:59:22.873Z,1020.03
2018-12-27T08:00:22.901Z,1020.03
2018-12-27T08:01:22.933Z,1020.02
2018-12-27T08:02:22.962Z,1019.96
2018-12-27T08:03:22.993Z,1020.00
2018-12-27T08:04:23.018Z,1020.00
2018-12-27T08:05:23.053Z,1020.04
2018-12-27T08:06:23.078Z,1019.97
2018-12-27T08:07:23.107Z,1019.97
2018-12-27T08:08:23.135Z,1019.96
2018-12-27T08:09:23.165Z,1020.02
2018-12-27T08:10:23.193Z,1020.00
2018-12-27T08:11:23.224Z,1019.97
2018-12-27T08:12:23.256Z,1019.95
2018-12-27T08:13:23.280Z,1020.00
2018-12-27T08:14:23.310Z,1020.02
2018-12-27T08:15:23.339Z,1020.03
2018-12-27T08:16:23.372Z,1020.02
2018-12-27T08:17:23.400Z,1020.00
2018-12-27T08:18:23.432Z,1020.02
2018-12-27T08:19:23.455Z,1020.02
2018-12-27T08:20:23.487Z,1020.03
2018-12-27T08:21:23.514Z,1020.03
2018-12-27T08:22:23.550Z,1020.00
2018-12-27T08:23:23.572Z,1019.99
2018-12-27T08:24:23.601Z,1019.99
2018-12-27T08:25:23.632Z,1019.96
2018-12-27T08:26:23.662Z,1020.00
2018-12-27T08:27:23.690Z,1019.96
2018-12-27T08:28:23.722Z,1019.94
2018-12-27T08:29:23.748Z,1019.95
2018-12-27T08:30:23.776Z,1020.01
2018-12-27T08:31:23.807Z,1019.97
2018-12-27T08:32:23.835Z,1019.93
2018-12-27T08:33:23.865Z,1019.95
2018-12-27T08:34:23.896Z,1019.98
2018-12-27T08:35:23.934Z,1019.93
2018-12-27T08:36:23.956Z,1019.95
2018-12-27T08:37:23.982Z,1019.92
2018-12-27T08:38:24.011Z,1019.90
2018-12-27T08:39:24.040Z,1019.92
2018-12-27T08:40:24.069Z,1019.87
2018-12-27T08:41:24.099Z,1019.85
2018-12-27T08:42:24.130Z,1019.85
2018-12-27T08:43:24.159Z,1019.87
2018-12-27T08:44:24.207Z,1019.88
2018-12-27T08:45:24.215Z,1019.88
2018-12-27T08:46:24.245Z,1019.91
2018-12-27T08:47:25.700Z,1019.87
2018-12-27T08:48:24.304Z,1019.88
2018-12-27T08:49:24.331Z,1019.85
2018-12-27T08:50:24.364Z,1019.86
2018-12-27T08:51:24.390Z,1019.85
2018-12-27T08:52:24.421Z,1019.80
2018-12-27T08:53:24.449Z,1019.87
2018-12-27T08:54:24.479Z,1019.88
2018-12-27T08:55:24.507Z,1019.88
2018-12-27T08:56:24.539Z,1019.88
2018-12-27T08:57:24.568Z,1019.81
2018-12-27T08:58:24.596Z,1019.86
2018-12-27T08:59:24.625Z,1019.84
2018-12-27T09:00:24.652Z,1019.87
2018-12-27T09:01:24.683Z,1019.86
2018-12-27T09:02:24.712Z,1019.83
2018-12-27T09:03:24.742Z,1019.84
2018-12-27T09:04:24.770Z,1019.86
2018-12-27T09:05:24.800Z,1019.81
2018-12-27T09:06:24.828Z,1019.80
2018-12-27T09:07:24.858Z,1019.78
2018-12-27T09:08:24.886Z,1019.77
2018-12-27T09:09:24.915Z,1019.80
2018-12-27T09:10:24.947Z,1019.73
2018-12-27T09:11:24.976Z,1019.77
2018-12-27T09:12:25.003Z,1019.71
2018-12-27T09:13:25.043Z,1019.79
2018-12-27T09:14:25.063Z,1019.82
2018-12-27T09:15:25.089Z,1019.75
2018-12-27T09:16:25.119Z,1019.79
2018-12-27T09:17:25.150Z,1019.80
2018-12-27T09:18:25.180Z,1019.80
2018-12-27T09:19:25.217Z,1019.83
2018-12-27T09:20:25.238Z,1019.79
2018-12-27T09:21:25.269Z,1019.81
2018-12-27T09:22:25.296Z,1019.77
2018-12-27T09:23:25.323Z,1019.81
2018-12-27T09:24:25.356Z,1019.77
2018-12-27T09:25:25.383Z,1019.79
2018-12-27T09:26:25.422Z,1019.91
2018-12-27T09:27:25.442Z,1019.85
2018-12-27T09:28:25.471Z,1019.83
2018-12-27T09:29:25.501Z,1019.86
2018-12-27T09:30:25.530Z,1019.89
2018-12-27T09:31:25.557Z,1019.84
2018-12-27T09:32:25.588Z,1019.81
2018-12-27T09:33:25.617Z,1019.82
2018-12-27T09:34:25.647Z,1019.81
2018-12-27T09:35:26.485Z,1019.84
2018-12-27T09:36:25.705Z,1019.80
2018-12-27T09:37:25.738Z,1019.84
2018-12-27T09:38:25.787Z,1019.85
2018-12-27T09:39:25.802Z,1019.83
2018-12-27T09:40:25.822Z,1019.82
2018-12-27T09:41:25.850Z,1019.88
2018-12-27T09:42:26.989Z,1019.89
2018-12-27T09:43:25.910Z,1019.85
2018-12-27T09:44:25.938Z,1019.85
2018-12-27T09:45:25.968Z,1019.87
2018-12-27T09:46:25.998Z,1019.83
2018-12-27T09:47:26.025Z,1019.85
2018-12-27T09:48:26.059Z,1019.82
2018-12-27T09:49:26.085Z,1019.80
2018-12-27T09:50:26.115Z,1019.81
2018-12-27T09:51:26.142Z,1019.79
2018-12-27T09:52:26.171Z,1019.79
2018-12-27T09:53:26.204Z,1019.76
2018-12-27T09:54:26.231Z,1019.79
2018-12-27T09:55:26.260Z,1019.76
2018-12-27T09:56:26.306Z,1019.76
2018-12-27T09:57:26.321Z,1019.76
2018-12-27T09:58:26.352Z,1019.71
2018-12-27T09:59:26.382Z,1019.72
2018-12-27T10:00:26.409Z,1019.72
2018-12-27T10:01:26.436Z,1019.75
2018-12-27T10:02:26.510Z,1019.65
2018-12-27T10:03:26.495Z,1019.60
2018-12-27T10:04:26.528Z,1019.60
2018-12-27T10:05:33.565Z,1019.57
2018-12-27T10:06:26.585Z,1019.61
2018-12-27T10:07:26.613Z,1019.58
2018-12-27T10:08:26.642Z,1019.55
2018-12-27T10:09:26.674Z,1019.56
2018-12-27T10:10:26.702Z,1019.52
2018-12-27T10:11:26.732Z,1019.54
2018-12-27T10:12:26.760Z,1019.56
2018-12-27T10:13:26.791Z,1019.55
2018-12-27T10:14:26.821Z,1019.47
2018-12-27T10:15:26.848Z,1019.50
2018-12-27T10:16:26.877Z,1019.50
2018-12-27T10:17:26.910Z,1019.50
2018-12-27T10:18:26.936Z,1019.50
2018-12-27T10:19:26.965Z,1019.50
2018-12-27T10:20:26.996Z,1019.45
2018-12-27T10:21:27.025Z,1019.44
2018-12-27T10:22:27.054Z,1019.46
2018-12-27T10:23:27.082Z,1019.42
2018-12-27T10:24:27.112Z,1019.38
2018-12-27T10:25:27.144Z,1019.38
2018-12-27T10:26:27.170Z,1019.36
2018-12-27T10:27:27.202Z,1019.36
2018-12-27T10:28:27.230Z,1019.34
2018-12-27T10:29:28.020Z,1019.35
2018-12-27T10:30:27.293Z,1019.32
2018-12-27T10:31:27.316Z,1019.39
2018-12-27T10:32:27.346Z,1019.36
2018-12-27T10:33:27.377Z,1019.32
2018-12-27T10:34:27.406Z,1019.35
2018-12-27T10:35:27.441Z,1019.34
2018-12-27T10:36:27.464Z,1019.29
2018-12-27T10:37:27.497Z,1019.28
2018-12-27T10:38:27.523Z,1019.29
2018-12-27T10:39:27.552Z,1019.23
2018-12-27T10:40:27.581Z,1019.25
2018-12-27T10:41:27.610Z,1019.25
2018-12-27T10:42:27.639Z,1019.24
2018-12-27T10:43:27.667Z,1019.28
2018-12-27T10:44:27.697Z,1019.29
2018-12-27T10:45:27.740Z,1019.28
2018-12-27T10:46:27.756Z,1019.29
2018-12-27T10:47:27.790Z,1019.26
2018-12-27T10:48:27.814Z,1019.20
2018-12-27T10:49:27.845Z,1019.18
2018-12-27T10:50:27.874Z,1019.19
2018-12-27T10:51:27.902Z,1019.16
2018-12-27T10:52:27.932Z,1019.17
2018-12-27T10:53:27.969Z,1019.22
2018-12-27T10:54:27.992Z,1019.20
2018-12-27T10:55:28.019Z,1019.12
2018-12-27T10:56:28.051Z,1019.15
2018-12-27T10:57:28.079Z,1019.10
2018-12-27T10:58:28.109Z,1019.11
2018-12-27T10:59:28.137Z,1019.13
2018-12-27T11:00:28.169Z,1019.11
2018-12-27T11:01:28.197Z,1019.12
2018-12-27T11:02:28.227Z,1019.05
2018-12-27T11:03:30.627Z,1019.02
2018-12-27T11:04:28.285Z,1018.98
2018-12-27T11:05:28.315Z,1019.03
2018-12-27T11:06:28.343Z,1019.01
2018-12-27T11:07:28.372Z,1018.98
2018-12-27T11:08:28.402Z,1018.96
2018-12-27T11:09:28.433Z,1018.99
2018-12-27T11:10:28.462Z,1019.00
2018-12-27T11:11:28.490Z,1018.95
2018-12-27T11:12:28.520Z,1018.94
2018-12-27T11:13:28.553Z,1018.91
2018-12-27T11:14:28.578Z,1018.88
2018-12-27T11:15:28.610Z,1018.88
2018-12-27T11:16:28.636Z,1018.85
2018-12-27T11:17:28.667Z,1018.85
2018-12-27T11:18:28.715Z,1018.84
2018-12-27T11:19:28.725Z,1018.83
2018-12-27T11:20:28.755Z,1018.82
2018-12-27T11:21:28.787Z,1018.90
2018-12-27T11:22:28.815Z,1018.88
2018-12-27T11:23:28.845Z,1018.86
2018-12-27T11:24:28.872Z,1018.83
2018-12-27T11:25:28.902Z,1018.87
2018-12-27T11:26:28.932Z,1018.81
2018-12-27T11:27:28.960Z,1018.86
2018-12-27T11:28:28.991Z,1018.77
2018-12-27T11:29:29.021Z,1018.82
2018-12-27T11:30:29.050Z,1018.80
2018-12-27T11:31:29.078Z,1018.79
2018-12-27T11:32:29.113Z,1018.77
2018-12-27T11:33:29.141Z,1018.73
2018-12-27T11:34:29.167Z,1018.74
2018-12-27T11:35:29.196Z,1018.72
2018-12-27T11:36:29.228Z,1018.64
2018-12-27T11:37:29.255Z,1018.74
2018-12-27T11:38:29.285Z,1018.68
2018-12-27T11:39:29.313Z,1018.72
2018-12-27T11:40:29.342Z,1018.73
2018-12-27T11:41:29.372Z,1018.71
2018-12-27T11:42:29.404Z,1018.68
2018-12-27T11:43:29.433Z,1018.69
2018-12-27T11:44:29.462Z,1018.68
2018-12-27T11:45:29.491Z,1018.67
2018-12-27T11:46:29.521Z,1018.67
2018-12-27T11:47:29.553Z,1018.64
2018-12-27T11:48:29.579Z,1018.66
2018-12-27T11:49:29.610Z,1018.67
2018-12-27T11:50:29.640Z,1018.66
2018-12-27T11:51:29.668Z,1018.71
2018-12-27T11:52:29.700Z,1018.70
2018-12-27T11:53:29.727Z,1018.72
2018-12-27T11:54:29.757Z,1018.74
2018-12-27T11:55:29.786Z,1018.76
2018-12-27T11:56:29.814Z,1018.75
2018-12-27T11:57:29.847Z,1018.76
2018-12-27T11:58:29.878Z,1018.76
2018-12-27T11:59:29.903Z,1018.80
2018-12-27T12:00:29.934Z,1018.79
2018-12-27T12:01:29.964Z,1018.80
2018-12-27T12:02:31.312Z,1018.77
2018-12-27T12:03:30.023Z,1018.80
2018-12-27T12:04:30.053Z,1018.78
2018-12-27T12:05:30.083Z,1018.78